sensor_id;sensor_type;location;lat;lon;timestamp;P1;durP1;ratioP1;P2;durP2;ratioP2
4806;SDS011;2417;52.482;13.432;2023-05-07T00:00:17;42.80;;;16.33;;
4806;SDS011;2417;52.482;13.432;2023-05-07T00:02:46;43.77;;;17.40;;
4806;SDS011;2417;52.482;13.432;2023-05-07T00:05:14;45.80;;;17.97;;
4806;SDS011;2417;52.482;13.432;2023-05-07T00:07:42;45.60;;;17.60;;
4806;SDS011;2417;52.482;13.432;2023-05-07T00:10:10;43.50;;;16.73;;
4806;SDS011;2417;52.482;13.432;2023-05-07T00:12:40;45.10;;;17.03;;
4806;SDS011;2417;52.482;13.432;2023-05-07T00:15:08;41.43;;;16.30;;
4806;SDS011;2417;52.482;13.432;2023-05-07T00:17:36;42.20;;;15.40;;
4806;SDS011;2417;52.482;13.432;2023-05-07T00:20:05;41.40;;;15.20;;
4806;SDS011;2417;52.482;13.432;2023-05-07T00:22:33;42.30;;;15.33;;
4806;SDS011;2417;52.482;13.432;2023-05-07T00:25:01;45.37;;;16.30;;
4806;SDS011;2417;52.482;13.432;2023-05-07T00:27:29;41.30;;;16.33;;
4806;SDS011;2417;52.482;13.432;2023-05-07T00:29:58;41.67;;;15.87;;
4806;SDS011;2417;52.482;13.432;2023-05-07T00:32:26;46.57;;;15.73;;
4806;SDS011;2417;52.482;13.432;2023-05-07T00:34:54;41.13;;;14.80;;
4806;SDS011;2417;52.482;13.432;2023-05-07T00:37:22;39.40;;;15.60;;
4806;SDS011;2417;52.482;13.432;2023-05-07T00:39:50;44.77;;;14.67;;
4806;SDS011;2417;52.482;13.432;2023-05-07T00:42:18;39.60;;;15.20;;
4806;SDS011;2417;52.482;13.432;2023-05-07T00:44:47;42.37;;;15.57;;
4806;SDS011;2417;52.482;13.432;2023-05-07T00:47:17;44.20;;;16.70;;
4806;SDS011;2417;52.482;13.432;2023-05-07T00:49:45;38.73;;;15.50;;
4806;SDS011;2417;52.482;13.432;2023-05-07T00:52:13;42.00;;;16.23;;
4806;SDS011;2417;52.482;13.432;2023-05-07T00:54:42;40.10;;;16.40;;
4806;SDS011;2417;52.482;13.432;2023-05-07T00:57:10;41.70;;;16.20;;
4806;SDS011;2417;52.482;13.432;2023-05-07T00:59:39;40.43;;;16.03;;
4806;SDS011;2417;52.482;13.432;2023-05-07T01:02:07;39.40;;;16.50;;
4806;SDS011;2417;52.482;13.432;2023-05-07T01:04:36;39.90;;;16.73;;
4806;SDS011;2417;52.482;13.432;2023-05-07T01:07:04;41.70;;;16.60;;
4806;SDS011;2417;52.482;13.432;2023-05-07T01:09:32;40.63;;;16.30;;
4806;SDS011;2417;52.482;13.432;2023-05-07T01:12:01;41.67;;;15.97;;
4806;SDS011;2417;52.482;13.432;2023-05-07T01:14:31;41.93;;;15.50;;
4806;SDS011;2417;52.482;13.432;2023-05-07T01:16:59;37.80;;;15.83;;
4806;SDS011;2417;52.482;13.432;2023-05-07T01:19:28;40.73;;;16.27;;
4806;SDS011;2417;52.482;13.432;2023-05-07T01:22:01;40.93;;;16.53;;
4806;SDS011;2417;52.482;13.432;2023-05-07T01:24:31;41.43;;;16.03;;
4806;SDS011;2417;52.482;13.432;2023-05-07T01:26:59;43.83;;;16.00;;
4806;SDS011;2417;52.482;13.432;2023-05-07T01:29:31;40.80;;;15.90;;
4806;SDS011;2417;52.482;13.432;2023-05-07T01:32:00;45.33;;;16.87;;
4806;SDS011;2417;52.482;13.432;2023-05-07T01:34:28;44.23;;;15.70;;
4806;SDS011;2417;52.482;13.432;2023-05-07T01:36:58;41.03;;;16.53;;
4806;SDS011;2417;52.482;13.432;2023-05-07T01:39:27;41.07;;;15.70;;
4806;SDS011;2417;52.482;13.432;2023-05-07T01:41:57;39.00;;;15.10;;
4806;SDS011;2417;52.482;13.432;2023-05-07T01:44:26;39.63;;;15.00;;
4806;SDS011;2417;52.482;13.432;2023-05-07T01:46:54;39.17;;;14.90;;
4806;SDS011;2417;52.482;13.432;2023-05-07T01:49:22;38.10;;;13.70;;
4806;SDS011;2417;52.482;13.432;2023-05-07T01:51:50;45.40;;;14.17;;
4806;SDS011;2417;52.482;13.432;2023-05-07T01:54:18;40.57;;;14.47;;
4806;SDS011;2417;52.482;13.432;2023-05-07T01:56:47;35.80;;;13.47;;
4806;SDS011;2417;52.482;13.432;2023-05-07T01:59:17;37.70;;;14.70;;
4806;SDS011;2417;52.482;13.432;2023-05-07T02:01:45;36.27;;;13.60;;
4806;SDS011;2417;52.482;13.432;2023-05-07T02:04:13;42.83;;;13.77;;
4806;SDS011;2417;52.482;13.432;2023-05-07T02:06:41;37.27;;;13.67;;
4806;SDS011;2417;52.482;13.432;2023-05-07T02:09:10;38.00;;;13.50;;
4806;SDS011;2417;52.482;13.432;2023-05-07T02:11:41;38.30;;;14.20;;
4806;SDS011;2417;52.482;13.432;2023-05-07T02:14:09;38.83;;;14.80;;
4806;SDS011;2417;52.482;13.432;2023-05-07T02:16:38;37.20;;;13.40;;
4806;SDS011;2417;52.482;13.432;2023-05-07T02:19:06;36.30;;;14.47;;
4806;SDS011;2417;52.482;13.432;2023-05-07T02:21:35;38.90;;;15.27;;
4806;SDS011;2417;52.482;13.432;2023-05-07T02:24:03;37.00;;;14.07;;
4806;SDS011;2417;52.482;13.432;2023-05-07T02:26:31;40.20;;;15.20;;
4806;SDS011;2417;52.482;13.432;2023-05-07T02:28:59;38.00;;;14.60;;
4806;SDS011;2417;52.482;13.432;2023-05-07T02:31:26;40.53;;;14.80;;
4806;SDS011;2417;52.482;13.432;2023-05-07T02:33:56;40.20;;;14.23;;
4806;SDS011;2417;52.482;13.432;2023-05-07T02:36:24;37.57;;;14.17;;
4806;SDS011;2417;52.482;13.432;2023-05-07T02:38:59;39.43;;;15.00;;
4806;SDS011;2417;52.482;13.432;2023-05-07T02:41:27;37.67;;;14.03;;
4806;SDS011;2417;52.482;13.432;2023-05-07T02:43:55;39.70;;;15.03;;
4806;SDS011;2417;52.482;13.432;2023-05-07T02:46:23;41.30;;;15.40;;
4806;SDS011;2417;52.482;13.432;2023-05-07T02:49:00;41.27;;;14.43;;
4806;SDS011;2417;52.482;13.432;2023-05-07T02:51:29;40.20;;;14.53;;
4806;SDS011;2417;52.482;13.432;2023-05-07T02:56:54;36.67;;;14.03;;
4806;SDS011;2417;52.482;13.432;2023-05-07T02:59:23;36.90;;;13.43;;
4806;SDS011;2417;52.482;13.432;2023-05-07T03:01:52;38.43;;;14.60;;
4806;SDS011;2417;52.482;13.432;2023-05-07T03:04:21;35.97;;;13.70;;
4806;SDS011;2417;52.482;13.432;2023-05-07T03:06:49;37.23;;;12.80;;
4806;SDS011;2417;52.482;13.432;2023-05-07T03:09:17;37.50;;;13.83;;
4806;SDS011;2417;52.482;13.432;2023-05-07T03:11:45;36.70;;;12.63;;
4806;SDS011;2417;52.482;13.432;2023-05-07T03:14:13;35.73;;;13.00;;
4806;SDS011;2417;52.482;13.432;2023-05-07T03:16:41;38.33;;;13.27;;
4806;SDS011;2417;52.482;13.432;2023-05-07T03:19:09;36.23;;;12.37;;
4806;SDS011;2417;52.482;13.432;2023-05-07T03:21:38;34.47;;;12.20;;
4806;SDS011;2417;52.482;13.432;2023-05-07T03:24:06;36.57;;;12.67;;
4806;SDS011;2417;52.482;13.432;2023-05-07T03:26:36;33.03;;;12.40;;
4806;SDS011;2417;52.482;13.432;2023-05-07T03:29:04;35.80;;;13.70;;
4806;SDS011;2417;52.482;13.432;2023-05-07T03:31:32;35.13;;;13.10;;
4806;SDS011;2417;52.482;13.432;2023-05-07T03:34:01;35.27;;;13.80;;
4806;SDS011;2417;52.482;13.432;2023-05-07T03:36:28;35.57;;;12.63;;
4806;SDS011;2417;52.482;13.432;2023-05-07T03:38:58;35.47;;;13.30;;
4806;SDS011;2417;52.482;13.432;2023-05-07T03:41:35;35.67;;;13.57;;
4806;SDS011;2417;52.482;13.432;2023-05-07T03:44:03;35.90;;;14.00;;
4806;SDS011;2417;52.482;13.432;2023-05-07T03:46:31;35.10;;;13.87;;
4806;SDS011;2417;52.482;13.432;2023-05-07T03:49:00;34.30;;;13.30;;
4806;SDS011;2417;52.482;13.432;2023-05-07T03:51:28;41.07;;;14.87;;
4806;SDS011;2417;52.482;13.432;2023-05-07T03:53:56;36.70;;;14.30;;
4806;SDS011;2417;52.482;13.432;2023-05-07T03:56:28;34.47;;;13.47;;
4806;SDS011;2417;52.482;13.432;2023-05-07T03:58:57;35.97;;;13.40;;
4806;SDS011;2417;52.482;13.432;2023-05-07T04:01:25;34.30;;;13.90;;
4806;SDS011;2417;52.482;13.432;2023-05-07T04:03:53;38.30;;;13.90;;
4806;SDS011;2417;52.482;13.432;2023-05-07T04:06:22;38.33;;;14.03;;
4806;SDS011;2417;52.482;13.432;2023-05-07T04:08:50;35.03;;;13.10;;
4806;SDS011;2417;52.482;13.432;2023-05-07T04:11:18;36.70;;;13.63;;
4806;SDS011;2417;52.482;13.432;2023-05-07T04:13:48;35.10;;;13.83;;
4806;SDS011;2417;52.482;13.432;2023-05-07T04:16:19;34.83;;;13.20;;
4806;SDS011;2417;52.482;13.432;2023-05-07T04:18:47;36.70;;;13.83;;
4806;SDS011;2417;52.482;13.432;2023-05-07T04:21:16;40.00;;;13.00;;
4806;SDS011;2417;52.482;13.432;2023-05-07T04:23:44;38.73;;;13.20;;
4806;SDS011;2417;52.482;13.432;2023-05-07T04:26:13;36.13;;;12.87;;
4806;SDS011;2417;52.482;13.432;2023-05-07T04:28:42;33.77;;;12.60;;
4806;SDS011;2417;52.482;13.432;2023-05-07T04:31:12;33.47;;;11.47;;
4806;SDS011;2417;52.482;13.432;2023-05-07T04:33:40;37.07;;;12.30;;
4806;SDS011;2417;52.482;13.432;2023-05-07T04:36:11;33.10;;;12.33;;
4806;SDS011;2417;52.482;13.432;2023-05-07T04:38:47;32.23;;;11.40;;
4806;SDS011;2417;52.482;13.432;2023-05-07T04:41:16;34.80;;;11.40;;
4806;SDS011;2417;52.482;13.432;2023-05-07T04:43:44;31.27;;;10.60;;
4806;SDS011;2417;52.482;13.432;2023-05-07T04:46:15;32.77;;;11.37;;
4806;SDS011;2417;52.482;13.432;2023-05-07T04:48:44;33.50;;;10.90;;
4806;SDS011;2417;52.482;13.432;2023-05-07T04:51:11;33.33;;;9.93;;
4806;SDS011;2417;52.482;13.432;2023-05-07T04:53:39;31.57;;;10.47;;
4806;SDS011;2417;52.482;13.432;2023-05-07T04:56:08;33.00;;;10.57;;
4806;SDS011;2417;52.482;13.432;2023-05-07T04:58:41;33.30;;;11.13;;
4806;SDS011;2417;52.482;13.432;2023-05-07T05:01:10;34.23;;;10.40;;
4806;SDS011;2417;52.482;13.432;2023-05-07T05:03:40;35.63;;;11.07;;
4806;SDS011;2417;52.482;13.432;2023-05-07T05:06:08;31.63;;;10.13;;
4806;SDS011;2417;52.482;13.432;2023-05-07T05:08:36;30.90;;;9.93;;
4806;SDS011;2417;52.482;13.432;2023-05-07T05:11:04;30.53;;;10.00;;
4806;SDS011;2417;52.482;13.432;2023-05-07T05:13:35;32.10;;;9.23;;
4806;SDS011;2417;52.482;13.432;2023-05-07T05:16:10;29.10;;;8.90;;
4806;SDS011;2417;52.482;13.432;2023-05-07T05:18:38;31.70;;;8.93;;
4806;SDS011;2417;52.482;13.432;2023-05-07T05:21:10;29.97;;;9.13;;
4806;SDS011;2417;52.482;13.432;2023-05-07T05:23:39;28.57;;;8.97;;
4806;SDS011;2417;52.482;13.432;2023-05-07T05:26:07;33.27;;;9.03;;
4806;SDS011;2417;52.482;13.432;2023-05-07T05:28:36;30.27;;;8.50;;
4806;SDS011;2417;52.482;13.432;2023-05-07T05:31:04;30.63;;;9.30;;
4806;SDS011;2417;52.482;13.432;2023-05-07T05:33:35;32.60;;;9.87;;
4806;SDS011;2417;52.482;13.432;2023-05-07T05:36:04;31.60;;;9.93;;
4806;SDS011;2417;52.482;13.432;2023-05-07T05:38:34;30.93;;;9.03;;
4806;SDS011;2417;52.482;13.432;2023-05-07T05:41:03;38.00;;;10.00;;
4806;SDS011;2417;52.482;13.432;2023-05-07T05:43:31;34.07;;;9.70;;
4806;SDS011;2417;52.482;13.432;2023-05-07T05:45:59;32.97;;;9.97;;
4806;SDS011;2417;52.482;13.432;2023-05-07T05:48:28;35.00;;;10.23;;
4806;SDS011;2417;52.482;13.432;2023-05-07T05:50:58;31.17;;;9.60;;
4806;SDS011;2417;52.482;13.432;2023-05-07T05:53:27;33.07;;;9.17;;
4806;SDS011;2417;52.482;13.432;2023-05-07T05:55:57;30.67;;;9.20;;
4806;SDS011;2417;52.482;13.432;2023-05-07T05:58:25;32.40;;;9.27;;
4806;SDS011;2417;52.482;13.432;2023-05-07T06:00:58;31.50;;;8.90;;
4806;SDS011;2417;52.482;13.432;2023-05-07T06:03:27;30.70;;;9.03;;
4806;SDS011;2417;52.482;13.432;2023-05-07T06:05:59;31.17;;;8.70;;
4806;SDS011;2417;52.482;13.432;2023-05-07T06:08:28;30.40;;;8.50;;
4806;SDS011;2417;52.482;13.432;2023-05-07T06:10:58;33.20;;;9.00;;
4806;SDS011;2417;52.482;13.432;2023-05-07T06:13:26;31.57;;;8.77;;
4806;SDS011;2417;52.482;13.432;2023-05-07T06:15:55;34.47;;;8.97;;
4806;SDS011;2417;52.482;13.432;2023-05-07T06:18:23;31.60;;;9.10;;
4806;SDS011;2417;52.482;13.432;2023-05-07T06:20:51;33.63;;;8.83;;
4806;SDS011;2417;52.482;13.432;2023-05-07T06:23:24;30.50;;;7.97;;
4806;SDS011;2417;52.482;13.432;2023-05-07T06:25:52;32.93;;;9.30;;
4806;SDS011;2417;52.482;13.432;2023-05-07T06:28:26;38.03;;;8.73;;
4806;SDS011;2417;52.482;13.432;2023-05-07T06:30:54;31.07;;;8.67;;
4806;SDS011;2417;52.482;13.432;2023-05-07T06:33:22;32.23;;;9.30;;
4806;SDS011;2417;52.482;13.432;2023-05-07T06:35:51;34.27;;;8.07;;
4806;SDS011;2417;52.482;13.432;2023-05-07T06:38:19;35.83;;;8.40;;
4806;SDS011;2417;52.482;13.432;2023-05-07T06:40:48;32.43;;;8.90;;
4806;SDS011;2417;52.482;13.432;2023-05-07T06:43:15;31.10;;;8.20;;
4806;SDS011;2417;52.482;13.432;2023-05-07T06:45:54;30.17;;;7.57;;
4806;SDS011;2417;52.482;13.432;2023-05-07T06:48:22;33.80;;;7.90;;
4806;SDS011;2417;52.482;13.432;2023-05-07T06:50:58;30.30;;;7.60;;
4806;SDS011;2417;52.482;13.432;2023-05-07T06:53:27;28.47;;;6.30;;
4806;SDS011;2417;52.482;13.432;2023-05-07T06:56:00;29.37;;;7.70;;
4806;SDS011;2417;52.482;13.432;2023-05-07T06:58:28;31.87;;;7.80;;
4806;SDS011;2417;52.482;13.432;2023-05-07T07:00:58;28.70;;;7.63;;
4806;SDS011;2417;52.482;13.432;2023-05-07T07:03:26;29.50;;;7.63;;
4806;SDS011;2417;52.482;13.432;2023-05-07T07:05:54;31.33;;;8.50;;
4806;SDS011;2417;52.482;13.432;2023-05-07T07:08:24;29.70;;;7.40;;
4806;SDS011;2417;52.482;13.432;2023-05-07T07:10:51;31.37;;;7.63;;
4806;SDS011;2417;52.482;13.432;2023-05-07T07:13:19;30.83;;;7.43;;
4806;SDS011;2417;52.482;13.432;2023-05-07T07:15:48;30.60;;;7.10;;
4806;SDS011;2417;52.482;13.432;2023-05-07T07:18:18;31.03;;;6.70;;
4806;SDS011;2417;52.482;13.432;2023-05-07T07:20:47;28.00;;;6.23;;
4806;SDS011;2417;52.482;13.432;2023-05-07T07:23:15;27.90;;;5.80;;
4806;SDS011;2417;52.482;13.432;2023-05-07T07:25:43;31.90;;;6.37;;
4806;SDS011;2417;52.482;13.432;2023-05-07T07:28:11;27.00;;;5.97;;
4806;SDS011;2417;52.482;13.432;2023-05-07T07:30:39;27.20;;;6.20;;
4806;SDS011;2417;52.482;13.432;2023-05-07T07:33:07;29.37;;;6.30;;
4806;SDS011;2417;52.482;13.432;2023-05-07T07:35:38;27.53;;;5.50;;
4806;SDS011;2417;52.482;13.432;2023-05-07T07:38:06;26.50;;;5.57;;
4806;SDS011;2417;52.482;13.432;2023-05-07T07:40:35;27.30;;;5.63;;
4806;SDS011;2417;52.482;13.432;2023-05-07T07:43:04;26.30;;;5.37;;
4806;SDS011;2417;52.482;13.432;2023-05-07T07:45:33;29.10;;;5.40;;
4806;SDS011;2417;52.482;13.432;2023-05-07T07:48:01;29.20;;;5.10;;
4806;SDS011;2417;52.482;13.432;2023-05-07T07:50:33;30.40;;;5.70;;
4806;SDS011;2417;52.482;13.432;2023-05-07T07:53:15;30.40;;;5.63;;
4806;SDS011;2417;52.482;13.432;2023-05-07T07:55:44;31.93;;;5.70;;
4806;SDS011;2417;52.482;13.432;2023-05-07T07:58:15;30.37;;;5.70;;
4806;SDS011;2417;52.482;13.432;2023-05-07T08:00:43;32.40;;;5.60;;
4806;SDS011;2417;52.482;13.432;2023-05-07T08:03:12;32.57;;;5.37;;
4806;SDS011;2417;52.482;13.432;2023-05-07T08:05:44;32.13;;;6.00;;
4806;SDS011;2417;52.482;13.432;2023-05-07T08:08:12;35.23;;;6.50;;
4806;SDS011;2417;52.482;13.432;2023-05-07T08:10:43;31.70;;;5.80;;
4806;SDS011;2417;52.482;13.432;2023-05-07T08:13:19;32.17;;;4.87;;
4806;SDS011;2417;52.482;13.432;2023-05-07T08:16:08;30.33;;;4.43;;
4806;SDS011;2417;52.482;13.432;2023-05-07T08:18:36;32.23;;;5.13;;
4806;SDS011;2417;52.482;13.432;2023-05-07T08:21:05;30.47;;;4.77;;
4806;SDS011;2417;52.482;13.432;2023-05-07T08:23:33;32.40;;;4.33;;
4806;SDS011;2417;52.482;13.432;2023-05-07T08:26:04;31.20;;;4.33;;
4806;SDS011;2417;52.482;13.432;2023-05-07T08:28:32;31.50;;;4.53;;
4806;SDS011;2417;52.482;13.432;2023-05-07T08:31:00;32.47;;;4.33;;
4806;SDS011;2417;52.482;13.432;2023-05-07T08:33:32;31.93;;;4.40;;
4806;SDS011;2417;52.482;13.432;2023-05-07T08:36:00;31.17;;;4.33;;
4806;SDS011;2417;52.482;13.432;2023-05-07T08:38:29;31.20;;;4.37;;
4806;SDS011;2417;52.482;13.432;2023-05-07T08:40:57;32.10;;;4.47;;
4806;SDS011;2417;52.482;13.432;2023-05-07T08:43:27;33.60;;;4.90;;
4806;SDS011;2417;52.482;13.432;2023-05-07T08:45:54;31.07;;;4.20;;
4806;SDS011;2417;52.482;13.432;2023-05-07T08:48:26;30.70;;;4.50;;
4806;SDS011;2417;52.482;13.432;2023-05-07T08:51:05;30.43;;;4.00;;
4806;SDS011;2417;52.482;13.432;2023-05-07T08:53:34;31.10;;;4.03;;
4806;SDS011;2417;52.482;13.432;2023-05-07T08:56:03;31.63;;;4.07;;
4806;SDS011;2417;52.482;13.432;2023-05-07T08:58:34;31.87;;;3.73;;
4806;SDS011;2417;52.482;13.432;2023-05-07T09:01:03;36.73;;;4.03;;
4806;SDS011;2417;52.482;13.432;2023-05-07T09:03:33;33.27;;;4.20;;
4806;SDS011;2417;52.482;13.432;2023-05-07T09:06:01;31.93;;;3.83;;
4806;SDS011;2417;52.482;13.432;2023-05-07T09:08:29;33.57;;;4.87;;
4806;SDS011;2417;52.482;13.432;2023-05-07T09:11:00;36.80;;;4.47;;
4806;SDS011;2417;52.482;13.432;2023-05-07T09:13:28;33.37;;;4.40;;
4806;SDS011;2417;52.482;13.432;2023-05-07T09:16:03;34.90;;;4.80;;
4806;SDS011;2417;52.482;13.432;2023-05-07T09:18:40;34.60;;;5.23;;
4806;SDS011;2417;52.482;13.432;2023-05-07T09:21:11;34.27;;;4.87;;
4806;SDS011;2417;52.482;13.432;2023-05-07T09:23:43;35.43;;;5.07;;
4806;SDS011;2417;52.482;13.432;2023-05-07T09:26:12;35.60;;;4.73;;
4806;SDS011;2417;52.482;13.432;2023-05-07T09:28:41;33.10;;;4.50;;
4806;SDS011;2417;52.482;13.432;2023-05-07T09:31:13;35.10;;;4.83;;
4806;SDS011;2417;52.482;13.432;2023-05-07T09:33:41;33.00;;;4.83;;
4806;SDS011;2417;52.482;13.432;2023-05-07T09:36:11;32.87;;;4.30;;
4806;SDS011;2417;52.482;13.432;2023-05-07T09:38:41;32.50;;;4.37;;
4806;SDS011;2417;52.482;13.432;2023-05-07T09:41:09;31.90;;;3.60;;
4806;SDS011;2417;52.482;13.432;2023-05-07T09:43:53;34.80;;;3.90;;
4806;SDS011;2417;52.482;13.432;2023-05-07T09:46:29;33.00;;;4.10;;
4806;SDS011;2417;52.482;13.432;2023-05-07T09:49:02;32.00;;;4.20;;
4806;SDS011;2417;52.482;13.432;2023-05-07T09:51:34;32.23;;;4.10;;
4806;SDS011;2417;52.482;13.432;2023-05-07T09:54:04;32.90;;;4.00;;
4806;SDS011;2417;52.482;13.432;2023-05-07T09:56:35;38.30;;;3.50;;
4806;SDS011;2417;52.482;13.432;2023-05-07T09:59:05;33.50;;;4.23;;
4806;SDS011;2417;52.482;13.432;2023-05-07T10:01:36;32.93;;;4.30;;
4806;SDS011;2417;52.482;13.432;2023-05-07T10:04:05;33.07;;;4.00;;
4806;SDS011;2417;52.482;13.432;2023-05-07T10:06:35;30.90;;;3.47;;
4806;SDS011;2417;52.482;13.432;2023-05-07T10:09:05;32.90;;;3.53;;
4806;SDS011;2417;52.482;13.432;2023-05-07T10:11:34;39.33;;;3.40;;
4806;SDS011;2417;52.482;13.432;2023-05-07T10:14:03;32.67;;;3.77;;
4806;SDS011;2417;52.482;13.432;2023-05-07T10:16:33;31.37;;;3.00;;
4806;SDS011;2417;52.482;13.432;2023-05-07T10:19:08;31.00;;;2.90;;
4806;SDS011;2417;52.482;13.432;2023-05-07T10:21:39;29.13;;;2.40;;
4806;SDS011;2417;52.482;13.432;2023-05-07T10:24:13;31.40;;;3.07;;
4806;SDS011;2417;52.482;13.432;2023-05-07T10:26:44;30.27;;;2.90;;
4806;SDS011;2417;52.482;13.432;2023-05-07T10:29:14;29.77;;;2.63;;
4806;SDS011;2417;52.482;13.432;2023-05-07T10:31:48;29.40;;;2.50;;
4806;SDS011;2417;52.482;13.432;2023-05-07T10:34:21;31.43;;;2.93;;
4806;SDS011;2417;52.482;13.432;2023-05-07T10:36:50;28.93;;;2.27;;
4806;SDS011;2417;52.482;13.432;2023-05-07T10:39:20;28.90;;;2.07;;
4806;SDS011;2417;52.482;13.432;2023-05-07T10:41:49;31.30;;;2.70;;
4806;SDS011;2417;52.482;13.432;2023-05-07T10:44:26;33.23;;;2.50;;
4806;SDS011;2417;52.482;13.432;2023-05-07T10:47:06;30.57;;;2.63;;
4806;SDS011;2417;52.482;13.432;2023-05-07T10:52:28;32.90;;;2.90;;
4806;SDS011;2417;52.482;13.432;2023-05-07T10:58:24;31.20;;;2.50;;
4806;SDS011;2417;52.482;13.432;2023-05-07T11:04:14;31.70;;;2.40;;
4806;SDS011;2417;52.482;13.432;2023-05-07T11:10:05;33.83;;;2.83;;
4806;SDS011;2417;52.482;13.432;2023-05-07T11:12:54;31.60;;;2.80;;
4806;SDS011;2417;52.482;13.432;2023-05-07T11:15:33;33.47;;;2.30;;
4806;SDS011;2417;52.482;13.432;2023-05-07T11:18:03;32.30;;;2.30;;
4806;SDS011;2417;52.482;13.432;2023-05-07T11:20:46;31.37;;;2.50;;
4806;SDS011;2417;52.482;13.432;2023-05-07T11:26:47;29.90;;;2.40;;
4806;SDS011;2417;52.482;13.432;2023-05-07T11:29:16;30.90;;;2.00;;
4806;SDS011;2417;52.482;13.432;2023-05-07T11:31:49;37.50;;;2.20;;
4806;SDS011;2417;52.482;13.432;2023-05-07T11:34:20;32.60;;;2.90;;
4806;SDS011;2417;52.482;13.432;2023-05-07T11:36:49;36.63;;;2.70;;
4806;SDS011;2417;52.482;13.432;2023-05-07T11:39:23;39.60;;;3.13;;
4806;SDS011;2417;52.482;13.432;2023-05-07T11:41:53;34.00;;;2.90;;
4806;SDS011;2417;52.482;13.432;2023-05-07T11:44:21;34.33;;;2.60;;
4806;SDS011;2417;52.482;13.432;2023-05-07T11:46:49;33.57;;;2.30;;
4806;SDS011;2417;52.482;13.432;2023-05-07T11:49:17;38.73;;;2.50;;
4806;SDS011;2417;52.482;13.432;2023-05-07T11:51:45;35.80;;;2.60;;
4806;SDS011;2417;52.482;13.432;2023-05-07T11:54:17;34.30;;;2.77;;
4806;SDS011;2417;52.482;13.432;2023-05-07T11:56:44;34.70;;;3.07;;
4806;SDS011;2417;52.482;13.432;2023-05-07T11:59:18;34.23;;;2.80;;
4806;SDS011;2417;52.482;13.432;2023-05-07T12:01:46;35.03;;;3.60;;
4806;SDS011;2417;52.482;13.432;2023-05-07T12:04:18;37.00;;;3.00;;
4806;SDS011;2417;52.482;13.432;2023-05-07T12:06:46;36.80;;;2.57;;
4806;SDS011;2417;52.482;13.432;2023-05-07T12:09:14;35.50;;;2.47;;
4806;SDS011;2417;52.482;13.432;2023-05-07T12:11:44;38.50;;;2.43;;
4806;SDS011;2417;52.482;13.432;2023-05-07T12:14:14;35.17;;;2.00;;
4806;SDS011;2417;52.482;13.432;2023-05-07T12:16:44;39.63;;;3.07;;
4806;SDS011;2417;52.482;13.432;2023-05-07T12:19:13;38.30;;;2.67;;
4806;SDS011;2417;52.482;13.432;2023-05-07T12:21:41;44.37;;;2.57;;
4806;SDS011;2417;52.482;13.432;2023-05-07T12:24:09;37.37;;;2.20;;
4806;SDS011;2417;52.482;13.432;2023-05-07T12:26:37;36.77;;;2.53;;
4806;SDS011;2417;52.482;13.432;2023-05-07T12:29:05;36.50;;;2.33;;
4806;SDS011;2417;52.482;13.432;2023-05-07T12:31:33;36.27;;;2.00;;
4806;SDS011;2417;52.482;13.432;2023-05-07T12:34:03;39.27;;;2.00;;
4806;SDS011;2417;52.482;13.432;2023-05-07T12:36:37;36.10;;;1.80;;
4806;SDS011;2417;52.482;13.432;2023-05-07T12:39:06;36.53;;;2.40;;
4806;SDS011;2417;52.482;13.432;2023-05-07T12:41:52;36.53;;;2.50;;
4806;SDS011;2417;52.482;13.432;2023-05-07T12:44:21;42.40;;;2.20;;
4806;SDS011;2417;52.482;13.432;2023-05-07T12:46:49;35.70;;;2.10;;
4806;SDS011;2417;52.482;13.432;2023-05-07T12:49:19;36.23;;;2.10;;
4806;SDS011;2417;52.482;13.432;2023-05-07T12:51:50;39.20;;;2.60;;
4806;SDS011;2417;52.482;13.432;2023-05-07T12:54:28;36.67;;;2.80;;
4806;SDS011;2417;52.482;13.432;2023-05-07T12:57:00;37.67;;;3.17;;
4806;SDS011;2417;52.482;13.432;2023-05-07T12:59:32;36.00;;;1.97;;
4806;SDS011;2417;52.482;13.432;2023-05-07T13:02:00;35.80;;;1.90;;
4806;SDS011;2417;52.482;13.432;2023-05-07T13:04:30;38.70;;;2.40;;
4806;SDS011;2417;52.482;13.432;2023-05-07T13:06:58;35.67;;;1.90;;
4806;SDS011;2417;52.482;13.432;2023-05-07T13:09:26;36.40;;;2.13;;
4806;SDS011;2417;52.482;13.432;2023-05-07T13:11:55;35.00;;;1.70;;
4806;SDS011;2417;52.482;13.432;2023-05-07T13:14:23;36.50;;;2.30;;
4806;SDS011;2417;52.482;13.432;2023-05-07T13:16:51;37.93;;;2.77;;
4806;SDS011;2417;52.482;13.432;2023-05-07T13:19:19;35.27;;;2.10;;
4806;SDS011;2417;52.482;13.432;2023-05-07T13:21:48;37.60;;;2.10;;
4806;SDS011;2417;52.482;13.432;2023-05-07T13:24:19;36.80;;;1.97;;
4806;SDS011;2417;52.482;13.432;2023-05-07T13:26:47;36.20;;;2.30;;
4806;SDS011;2417;52.482;13.432;2023-05-07T13:29:15;37.10;;;2.90;;
4806;SDS011;2417;52.482;13.432;2023-05-07T13:31:43;37.67;;;2.17;;
4806;SDS011;2417;52.482;13.432;2023-05-07T13:34:13;36.70;;;2.33;;
4806;SDS011;2417;52.482;13.432;2023-05-07T13:36:41;36.30;;;2.43;;
4806;SDS011;2417;52.482;13.432;2023-05-07T13:39:11;40.47;;;2.37;;
4806;SDS011;2417;52.482;13.432;2023-05-07T13:41:39;37.00;;;2.20;;
4806;SDS011;2417;52.482;13.432;2023-05-07T13:44:07;35.27;;;1.67;;
4806;SDS011;2417;52.482;13.432;2023-05-07T13:46:37;36.33;;;1.90;;
4806;SDS011;2417;52.482;13.432;2023-05-07T13:49:05;36.83;;;2.13;;
4806;SDS011;2417;52.482;13.432;2023-05-07T13:51:33;36.90;;;2.17;;
4806;SDS011;2417;52.482;13.432;2023-05-07T13:54:01;37.10;;;2.70;;
4806;SDS011;2417;52.482;13.432;2023-05-07T13:56:31;35.43;;;1.90;;
4806;SDS011;2417;52.482;13.432;2023-05-07T13:58:59;37.50;;;2.10;;
4806;SDS011;2417;52.482;13.432;2023-05-07T14:01:27;37.90;;;2.10;;
4806;SDS011;2417;52.482;13.432;2023-05-07T14:03:56;35.67;;;1.87;;
4806;SDS011;2417;52.482;13.432;2023-05-07T14:06:29;36.53;;;2.30;;
4806;SDS011;2417;52.482;13.432;2023-05-07T14:08:57;35.27;;;1.70;;
4806;SDS011;2417;52.482;13.432;2023-05-07T14:11:26;35.00;;;1.70;;
4806;SDS011;2417;52.482;13.432;2023-05-07T14:13:57;35.10;;;1.63;;
4806;SDS011;2417;52.482;13.432;2023-05-07T14:16:28;35.20;;;1.80;;
4806;SDS011;2417;52.482;13.432;2023-05-07T14:18:56;36.50;;;2.40;;
4806;SDS011;2417;52.482;13.432;2023-05-07T14:21:24;38.67;;;2.50;;
4806;SDS011;2417;52.482;13.432;2023-05-07T14:23:55;38.00;;;2.17;;
4806;SDS011;2417;52.482;13.432;2023-05-07T14:26:25;35.67;;;2.03;;
4806;SDS011;2417;52.482;13.432;2023-05-07T14:28:54;36.17;;;2.13;;
4806;SDS011;2417;52.482;13.432;2023-05-07T14:31:26;36.00;;;2.20;;
4806;SDS011;2417;52.482;13.432;2023-05-07T14:33:54;36.00;;;2.47;;
4806;SDS011;2417;52.482;13.432;2023-05-07T14:36:25;39.40;;;2.60;;
4806;SDS011;2417;52.482;13.432;2023-05-07T14:38:53;37.70;;;2.80;;
4806;SDS011;2417;52.482;13.432;2023-05-07T14:41:21;36.70;;;2.70;;
4806;SDS011;2417;52.482;13.432;2023-05-07T14:43:50;40.00;;;2.70;;
4806;SDS011;2417;52.482;13.432;2023-05-07T14:46:18;39.83;;;2.10;;
4806;SDS011;2417;52.482;13.432;2023-05-07T14:48:48;36.73;;;2.43;;
4806;SDS011;2417;52.482;13.432;2023-05-07T14:51:16;36.30;;;2.50;;
4806;SDS011;2417;52.482;13.432;2023-05-07T14:53:44;41.90;;;2.30;;
4806;SDS011;2417;52.482;13.432;2023-05-07T14:56:13;36.27;;;2.23;;
4806;SDS011;2417;52.482;13.432;2023-05-07T14:58:41;40.10;;;3.10;;
4806;SDS011;2417;52.482;13.432;2023-05-07T15:01:09;35.80;;;2.10;;
4806;SDS011;2417;52.482;13.432;2023-05-07T15:03:37;35.40;;;1.90;;
4806;SDS011;2417;52.482;13.432;2023-05-07T15:06:06;35.47;;;2.07;;
4806;SDS011;2417;52.482;13.432;2023-05-07T15:08:34;36.20;;;2.53;;
4806;SDS011;2417;52.482;13.432;2023-05-07T15:11:02;36.80;;;2.97;;
4806;SDS011;2417;52.482;13.432;2023-05-07T15:13:30;36.80;;;2.33;;
4806;SDS011;2417;52.482;13.432;2023-05-07T15:15:58;35.70;;;2.30;;